Weather observations for the past three days for
Mount Pleasant, Mount Pleasant Municipal Airport
Imperial (Metric)
Date Time (edt) Wind (mph) Vis. (mi.) Weather Sky Cond. Temperature (ºF) Relative Humidity Wind Chill (°F) Heat Index (°F) Pressure Precipitation (in)
Air Dwpt 6 hour altimeter (in) sea level (mb) 1 hr 3 hr 6 hr
Max. Min.
06 08:35 N 3 10.00 Fair CLR 40.5 31.3 70% 29.89 0.0
06 08:15 N 7 10.00 Partly Cloudy SCT025 39.4 31.5 73% 35 29.89 0.0
06 07:55 NE 6 10.00 Overcast OVC023 38.1 31.8 43.2 36.1 78% 34 29.87 0.0
06 07:35 N 3 10.00 Overcast OVC023 37.4 32 81% 29.87 0.0
06 07:15 N 3 10.00 Mostly Cloudy BKN021 36.9 32 83% 29.87 0.0
06 06:55 N 5 10.00 Partly Cloudy SCT021 36.3 32 84% 33 29.86 0.0
06 06:35 N 3 10.00 Mostly Cloudy BKN023 36.7 32.2 84% 29.86 0.0
06 06:15 N 6 10.00 Mostly Cloudy BKN023 37.4 32 81% 33 29.85 0.0
06 05:55 N 6 10.00 Fair CLR 37.6 32 80% 34 29.84 0.0
06 05:35 N 7 10.00 Fair CLR 38.3 32.5 80% 34 29.83 0.0
06 05:15 N 7 10.00 Fair CLR 39.4 32.5 77% 35 29.82 0.0
06 04:55 N 6 10.00 Fair CLR 40.5 31.1 69% 37 29.81 0.0
06 04:35 N 3 10.00 Fair CLR 41.4 29.5 63% 29.81 0.0
06 04:15 Calm 10.00 Fair CLR 41.4 29.1 62% 29.81 0.0
06 03:55 W 3 10.00 Fair CLR 41.9 29.1 61% 29.81 0.0
06 03:35 W 3 10.00 Fair CLR 42.3 29.1 60% 29.8 0.0
06 03:15 Calm 10.00 Fair CLR 41.9 28.9 60% 29.8 0.0
06 02:55 Calm 10.00 Fair CLR 41.4 29.7 63% 29.8 0.0
06 02:35 Calm 10.00 Fair CLR 43.2 28.4 56% 29.81 0.0
06 02:15 W 5 10.00 Fair CLR 42.3 29.7 61% 40 29.81 0.0
06 01:55 W 6 10.00 Fair CLR 43.2 29.1 52.9 42.8 58% 40 29.81 0.0
06 01:35 W 5 10.00 Fair CLR 43.2 29.1 58% 41 29.81 0.0
06 01:15 W 3 10.00 Fair CLR 45.3 27.7 50% 29.8 0.0
06 00:55 W 3 10.00 Fair CLR 45.9 27.3 48% 29.8 0.0
06 00:35 W 3 10.00 Fair CLR 46.6 27.1 47% 29.8 0.0
06 00:15 Calm 10.00 Fair CLR 46.6 27.7 48% 29.79 0.0
05 23:55 W 6 10.00 Fair CLR 45.7 28.9 52% 43 29.8 0.0
05 23:35 W 3 10.00 Fair CLR 45.7 30.6 56% 29.8 0.0
05 23:15 W 3 10.00 Fair CLR 46.8 29.3 51% 29.79 0.0
05 22:55 W 3 10.00 Fair CLR 46.8 29.8 52% 29.79 0.0
05 22:35 W 3 10.00 Fair CLR 48.2 28.8 47% 29.78 0.0
05 22:15 W 5 10.00 Fair CLR 49.1 28.2 45% 48 29.78 0.0
05 21:55 W 6 10.00 Fair CLR 49.3 28.8 45% 47 29.78 0.0
05 21:35 W 5 10.00 Fair CLR 49.8 28.8 44% 49 29.77 0.0
05 21:15 Calm 10.00 Fair CLR 49.5 28.8 45% 29.76 0.0
05 20:55 W 6 10.00 Fair CLR 50.4 28 42% 29.76 0.0
05 20:35 W 7 10.00 Fair CLR 51.8 27 38% 29.76 0.0
05 20:15 W 7 10.00 Fair CLR 52.2 27.3 38% 29.75 0.0
05 19:55 W 8 G 16 10.00 Fair CLR 53.1 26.2 60.4 53.1 35% 29.75 0.0
05 19:35 W 10 G 16 10.00 Fair CLR 54.1 27 35% 29.74 0.0
05 19:15 W 10 10.00 Fair CLR 55 28.6 36% 29.73 0.0
05 18:55 W 12 10.00 Fair CLR 55.6 27.7 34% 29.73 0.0
05 18:35 W 9 10.00 Fair CLR 55.8 25.3 31% 29.73 0.0
05 18:15 W 9 G 18 10.00 Fair CLR 55.8 25.3 31% 29.73 0.0
05 17:55 W 10 G 18 10.00 Fair CLR 56.1 24.8 30% 29.73 0.0
05 17:35 W 14 G 18 10.00 Fair CLR 57.4 25.5 29% 29.73 0.0
05 17:15 W 12 G 17 10.00 Fair CLR 57.9 25.3 29% 29.73 0.0
05 16:55 W 10 G 16 10.00 Fair CLR 58.8 25.7 28% 29.72 0.0
05 16:35 W 10 G 18 10.00 Fair CLR 59.5 24.4 26% 29.73 0.0
05 16:15 SW 16 G 21 10.00 Fair CLR 60.4 25.7 27% 29.72 0.0
05 15:55 W 12 G 17 10.00 Fair CLR 59.7 25.3 27% 29.72 0.0
05 15:35 W 12 G 16 10.00 Fair CLR 58.1 23.5 26% 29.71 0.0
05 15:15 W 9 10.00 Fair CLR 59.4 26.1 28% 29.71 0.0
05 14:55 W 12 G 23 10.00 Fair CLR 59 24.8 27% 29.71 0.0
05 14:35 NW 7 G 22 10.00 Fair CLR 59 25.2 27% 29.72 0.0
05 14:15 W 12 G 22 10.00 Fair CLR 58.5 24.3 27% 29.7 0.0
05 13:55 W 16 G 20 10.00 Fair CLR 57.9 26.1 58.5 48.4 29% 29.7 0.0
05 13:35 W 14 G 21 10.00 Fair CLR 57.7 27.1 31% 29.7 0.0
05 13:15 W 12 10.00 Fair CLR 58.1 28.4 32% 29.69 0.0
05 12:55 W 15 G 23 10.00 Fair CLR 57.2 30.2 36% 29.7 0.0
05 12:35 W 16 10.00 Partly Cloudy SCT050 56.1 31.3 39% 29.7 0.0
05 12:15 SW 12 10.00 Mostly Cloudy BKN050 56.5 34.2 43% 29.7 0.0
05 11:55 W 12 G 21 10.00 Partly Cloudy SCT048 55.8 34.7 45% 29.71 0.0
05 11:35 W 9 G 20 10.00 Partly Cloudy SCT048 54.3 34.5 47% 29.71 0.0
05 11:15 W 13 G 18 10.00 Partly Cloudy SCT046 53.1 35.6 52% 29.72 0.0
05 10:55 W 9 10.00 Mostly Cloudy SCT048 BKN050 54 34.3 48% 29.71 0.0
05 10:35 W 13 10.00 Partly Cloudy SCT047 52.9 34.2 49% 29.71 0.0
05 10:15 W 9 10.00 Partly Cloudy SCT045 52.3 34.3 51% 29.7 0.0
05 09:55 W 7 10.00 Fair CLR 52.2 33.8 50% 29.71 0.0
05 09:35 W 9 10.00 Partly Cloudy SCT048 51.6 34.5 52% 29.69 0.0
05 09:15 W 7 10.00 Mostly Cloudy BKN048 50.5 34.9 55% 29.7 0.0
05 08:55 N 5 10.00 Overcast OVC046 50 33.4 53% 49 29.66 0.0
05 08:35 NW 6 10.00 Overcast OVC044 49.5 35.1 58% 48 29.66 0.0
05 08:15 W 3 10.00 Overcast OVC042 49.3 37.9 65% 29.66 0.0
05 07:55 Calm 10.00 Overcast OVC042 48.2 38.7 57 43.5 70% 29.66 0.0
05 07:35 W 3 10.00 Mostly Cloudy BKN040 46.8 39.9 77% 29.65 0.0
05 07:15 Calm 10.00 Overcast OVC038 45.1 40.5 84% 29.63 0.0
05 06:55 W 3 10.00 Mostly Cloudy BKN036 43.7 38.7 83% 29.63 0.0
05 06:35 Calm 10.00 Partly Cloudy SCT036 44.8 37.8 76% 29.62 0.0
05 06:15 Calm 10.00 Fair CLR 45.7 36.9 71% 29.61 0.0
05 05:55 Calm 10.00 Fair CLR 46.6 37.4 71% 29.6 0.0
05 05:35 N 3 10.00 Partly Cloudy SCT110 47.7 37.4 68% 29.58 0.0
05 05:15 N 6 10.00 Fair CLR 48.2 37.8 67% 46 29.58 0.0
05 04:55 N 6 10.00 Partly Cloudy SCT120 48.6 39.4 71% 47 29.58 0.0
05 04:35 N 6 10.00 Mostly Cloudy BKN110 49.8 42.1 75% 48 29.56 0.0
05 04:15 N 9 G 16 10.00 Mostly Cloudy SCT027 BKN110 52.9 46.8 80% 29.53 0.0
05 03:55 W 3 10.00 Overcast OVC110 54.1 45.9 74% 29.51 0.0
05 03:35 W 7 10.00 Overcast OVC110 54.1 46.6 76% 29.51 0.0
05 03:15 W 8 10.00 Overcast OVC110 54.5 47.1 76% 29.51 0.0
05 02:55 W 5 10.00 Overcast SCT095 OVC110 55.8 47.5 74% 29.49 0.0
05 02:35 SW 7 10.00 Mostly Cloudy SCT095 BKN110 56.1 48.6 76% 29.5 0.0
05 02:15 SW 8 10.00 Partly Cloudy SCT120 56.8 48.9 75% 29.49 0.0
05 01:55 SW 7 10.00 Fair CLR 55.8 50 71.6 53.6 81% 29.48 0.0 0.16
05 01:35 SW 5 10.00 Partly Cloudy SCT080 56.7 50.9 81% 29.48 0.0
05 01:15 SW 6 10.00 Fair CLR 57.6 52.2 82% 29.48 0.0
05 00:55 SW 3 10.00 Fair CLR 56.5 52.7 87% 29.47 0.0
05 00:35 Calm 10.00 Partly Cloudy SCT090 57.2 53.4 87% 29.47 0.0
05 00:15 W 6 10.00 Mostly Cloudy BKN090 59.2 53.6 82% 29.47 0.0
04 23:55 SW 8 10.00 Fair CLR 55.8 53.1 91% 29.46 0.0
04 23:35 S 3 10.00 Fair CLR 53.8 53.1 97% 29.44 0.0
04 23:15 Calm 10.00 Partly Cloudy SCT075 56.7 52.7 87% 29.45 0.0
04 22:55 SW 3 10.00 Light Rain SCT026 SCT041 BKN080 57.2 51.8 82% 29.44 0.0 0.16 0.16
04 22:35 W 21 G 37 3.00 Heavy Rain and Breezy SCT026 SCT039 OVC065 59.5 49.6 70% 29.47 0.0 0.12
04 22:15 W 5 10.00 Mostly Cloudy SCT065 SCT080 BKN100 67.5 41.9 40% 29.42 0.0
04 21:55 W 5 10.00 Mostly Cloudy BKN100 67.5 41.5 39% 29.43 0.0
04 21:35 S 8 10.00 Partly Cloudy SCT110 67.6 40.1 37% 29.4 0.0
04 21:15 S 6 10.00 Fair CLR 68.2 39.7 35% 29.4 0.0
04 20:55 S 6 10.00 Fair CLR 68.9 39.2 34% 29.4 0.0
04 20:35 S 9 10.00 Fair CLR 70.2 38.7 32% 29.39 0.0
04 20:15 S 9 G 17 10.00 Fair CLR 71.2 38.5 30% 29.4 0.0
04 19:55 SW 9 10.00 Fair CLR 71.6 39 76.6 71.6 31% 29.4 0.0
04 19:35 SW 13 G 18 10.00 Fair CLR 72.7 38.7 29% 29.41 0.0
04 19:15 SW 15 G 25 10.00 Fair CLR 72.7 37.6 28% 29.42 0.0
04 18:55 SW 18 G 28 10.00 Fair CLR 73 36.7 27% 29.43 0.0
04 18:35 SW 15 G 25 10.00 Fair CLR 73.4 36 26% 29.44 0.0
04 18:15 SW 17 G 26 10.00 Fair CLR 72.9 35.6 26% 29.45 0.0
04 17:55 SW 18 G 26 10.00 Fair CLR 73.8 33.8 23% 29.45 0.0
04 17:35 SW 15 G 25 10.00 Fair CLR 73.9 32.4 22% 29.46 0.0
04 17:15 SW 17 G 28 10.00 Fair CLR 74.5 31.6 21% 29.46 0.0
04 16:55 SW 18 G 29 10.00 Fair CLR 73.9 30.7 20% 29.46 0.0
04 16:35 SW 25 G 31 10.00 Fair and Breezy CLR 74.3 30.2 20% 29.47 0.0
04 16:15 SW 18 G 31 10.00 Fair CLR 74.7 30.6 20% 29.47 0.0
04 15:55 SW 21 G 33 10.00 Fair and Breezy CLR 76.3 31.8 20% 77 29.47 0.0
04 15:35 SW 21 G 32 10.00 Fair and Breezy CLR 75.2 30.4 19% 76 29.48 0.0
04 15:15 SW 25 G 33 10.00 Fair and Breezy CLR 74.8 30.9 20% 29.48 0.0
04 14:55 SW 20 G 32 10.00 Fair CLR 74.3 31.6 21% 29.48 0.0
04 14:35 SW 15 G 29 10.00 Fair CLR 74.7 33.1 22% 29.49 0.0
04 14:16 SW 23 G 31 10.00 Fair and Breezy CLR 75.2 33.8 22% 76 29.48 0.0
04 13:55 SW 18 G 36 10.00 Fair CLR 74.3 32.4 74.7 51.8 21% 29.49 0.0
04 13:35 SW 20 G 29 10.00 Fair CLR 74.5 35.1 24% 29.5 0.0
04 13:15 SW 21 G 38 10.00 Fair and Breezy CLR 73.2 32.5 22% 29.51 0.0
04 12:55 S 22 G 32 10.00 Fair and Breezy CLR 72.7 32.2 23% 29.51 0.0
04 12:35 SW 17 G 31 10.00 Fair CLR 72.5 35.2 26% 29.52 0.0
04 12:15 SW 18 G 32 10.00 Fair CLR 71.4 37.8 29% 29.53 0.0
04 11:55 SW 14 G 24 10.00 Fair CLR 70.9 39.7 32% 29.54 0.0
04 11:35 SW 17 G 25 10.00 Fair CLR 69.3 40.8 36% 29.54 0.0
04 11:15 S 15 10.00 Fair CLR 68.7 43.2 40% 29.56 0.0
04 10:55 SW 13 G 20 10.00 Fair CLR 66.4 43.2 43% 29.57 0.0
04 10:35 S 14 10.00 Fair CLR 64.4 43.9 47% 29.57 0.0
04 10:15 SW 14 G 18 10.00 Fair CLR 62.4 43.7 51% 29.58 0.0
04 09:55 SW 13 G 16 10.00 Fair CLR 61 43.9 54% 29.58 0.0
04 09:35 SW 13 10.00 Fair CLR 59.5 44.2 57% 29.58 0.0
04 09:15 S 10 10.00 Fair CLR 57.7 45 63% 29.58 0.0
04 08:55 SW 12 10.00 Fair CLR 55.6 44.8 67% 29.59 0.0
04 08:35 S 6 10.00 Fair CLR 54 44.8 71% 29.59 0.0
04 08:15 S 7 10.00 Fair CLR 52.5 44.2 74% 29.59 0.0
04 07:55 S 3 10.00 Fair CLR 51.3 44.1 51.3 45.1 77% 29.59 0.0
04 07:35 S 5 10.00 Fair CLR 49.6 43.7 80% 48 29.59 0.0
04 07:15 Calm 10.00 Fair CLR 47.5 43 84% 29.59 0.0
04 06:55 S 3 10.00 Fair CLR 45.3 42.1 88% 29.59 0.0
04 06:35 Calm 10.00 Fair CLR 47.1 42.3 83% 29.59 0.0
04 06:15 Calm 10.00 Fair CLR 47.5 42.6 83% 29.59 0.0
04 05:55 S 3 10.00 Fair CLR 47.3 42.3 83% 29.59 0.0
04 05:35 SW 3 10.00 Fair CLR 46.2 41.9 85% 29.6 0.0
04 05:15 Calm 10.00 Fair CLR 48.2 42.4 81% 29.61 0.0
04 04:55 Calm 10.00 Fair CLR 48 42.4 81% 29.61 0.0
04 04:35 SW 6 10.00 Fair CLR 48.7 42.6 80% 47 29.61 0.0
04 04:15 SW 6 10.00 Fair CLR 49.1 42.6 78% 47 29.61 0.0
04 03:55 SW 8 10.00 Fair CLR 49.6 42.8 77% 47 29.61 0.0
04 03:35 SW 8 10.00 Fair CLR 49.8 42.4 76% 47 29.61 0.0
04 03:15 SW 7 10.00 Fair CLR 49.5 42.6 77% 47 29.62 0.0
04 02:55 S 5 10.00 Fair CLR 48.9 42.1 77% 48 29.63 0.0
04 02:35 S 5 10.00 Fair CLR 48.9 41.9 77% 48 29.64 0.0
04 02:15 S 6 10.00 Fair CLR 48.7 41.9 77% 47 29.64 0.0
04 01:55 S 5 10.00 Fair CLR 48.9 41.4 56.7 48.9 75% 48 29.65 0.0
04 01:35 S 5 10.00 Fair CLR 49.1 41.2 74% 48 29.66 0.0
04 01:15 S 6 10.00 Fair CLR 49.3 41 73% 47 29.66 0.0
04 00:55 S 7 10.00 Fair CLR 50.2 41 71% 29.67 0.0
04 00:35 S 7 10.00 Fair CLR 50 40.8 71% 48 29.68 0.0
04 00:15 Calm 10.00 Partly Cloudy SCT100 49.3 40.6 72% 29.69 0.0
03 23:55 N 5 10.00 Mostly Cloudy SCT080 BKN100 51.1 40.6 68% 29.71 0.0
03 23:35 S 6 10.00 Partly Cloudy SCT080 51.4 40.3 66% 29.7 0.0
03 23:15 S 8 G 17 10.00 Fair CLR 51.4 40.1 65% 29.69 0.0
03 22:55 S 8 10.00 Fair CLR 51.8 39.9 64% 29.69 0.0
03 22:35 S 9 G 16 10.00 Fair CLR 52 39.6 63% 29.7 0.0
03 22:15 S 8 10.00 Fair CLR 52.3 39.4 62% 29.7 0.0
03 21:55 S 8 10.00 Fair CLR 52.7 39.2 60% 29.7 0.0
03 21:35 S 9 G 16 10.00 Partly Cloudy SCT060 53.6 38.8 58% 29.7 0.0
03 21:15 S 8 10.00 Partly Cloudy SCT060 54 38.7 56% 29.7 0.0
03 20:55 SW 13 G 21 10.00 Partly Cloudy SCT060 54.7 38.3 54% 29.71 0.0
03 20:35 SW 9 G 20 10.00 Mostly Cloudy BKN060 55.4 38.3 53% 29.71 0.0
03 20:15 S 12 G 18 10.00 Partly Cloudy SCT060 56.1 38.3 51% 29.71 0.0
03 19:55 S 17 G 26 10.00 Fair CLR 57.2 37.8 63.5 56.3 48% 29.71 0.0
03 19:35 S 17 G 23 10.00 Fair CLR 57.2 38.3 49% 29.71 0.0
03 19:15 SW 17 G 24 10.00 Fair CLR 57.4 39.6 52% 29.71 0.0
03 18:55 SW 18 G 24 10.00 Fair CLR 57.6 40.1 52% 29.72 0.0
03 18:35 SW 18 G 25 10.00 Fair CLR 58.1 40.6 52% 29.73 0.0
03 18:15 SW 17 G 25 10.00 Partly Cloudy SCT080 58.8 40.8 51% 29.73 0.0
03 17:55 SW 17 G 25 10.00 Overcast OVC080 58.3 40.3 51% 29.74 0.0
03 17:35 SW 14 G 25 10.00 Overcast OVC070 56.8 39 52% 29.74 0.0
03 17:15 SW 17 G 28 10.00 Overcast SCT048 OVC070 56.7 38.7 51% 29.75 0.0
03 16:55 SW 24 G 38 10.00 Overcast and Breezy BKN048 BKN060 OVC070 57.4 38.5 49% 29.75 0.0
03 16:35 SW 22 G 35 10.00 Mostly Cloudy and Breezy BKN050 BKN060 60.4 39.4 46% 29.75 0.0
03 16:15 SW 22 G 31 10.00 Partly Cloudy and Breezy SCT050 61.7 38.5 42% 29.74 0.0
03 15:55 SW 24 G 35 10.00 Partly Cloudy and Breezy SCT055 62.8 37.6 39% 29.74 0.0
03 15:35 SW 23 G 36 10.00 Fair and Breezy CLR 62.8 37.9 40% 29.75 0.0
03 15:15 SW 18 G 33 10.00 Partly Cloudy SCT100 63 37.4 39% 29.76 0.0
03 14:55 SW 20 G 31 10.00 Partly Cloudy SCT100 62.1 38.1 41% 29.76 0.0
03 14:35 SW 28 G 35 10.00 Mostly Cloudy and Windy BKN090 61.9 38.3 42% 29.76 0.0
03 14:15 SW 14 G 24 10.00 Mostly Cloudy BKN090 62.2 38.8 42% 29.77 0.0
03 13:55 SW 20 G 26 10.00 Overcast BKN090 OVC110 62.8 38.8 62.8 45.1 41% 29.77 0.0
03 13:35 SW 20 G 26 10.00 Mostly Cloudy BKN110 60.4 37.9 43% 29.78 0.0
03 13:15 SW 20 G 25 10.00 Mostly Cloudy BKN100 60.3 36.3 41% 29.78 0.0
03 12:55 SW 13 G 18 10.00 Mostly Cloudy BKN090 59 36.1 43% 29.79 0.0
03 12:35 SW 10 G 18 10.00 Partly Cloudy SCT065 SCT080 SCT090 57.7 35.2 43% 29.81 0.0
03 12:15 SW 17 G 24 10.00 Mostly Cloudy SCT080 BKN090 57.2 34.3 42% 29.81 0.0
03 11:55 SW 12 10.00 Overcast BKN060 OVC070 56.5 35.4 45% 29.81 0.0
03 11:35 SW 12 G 17 10.00 Overcast BKN060 OVC070 55 34.7 46% 29.82 0.0
03 11:15 W 12 10.00 Overcast SCT055 OVC065 54.5 34.5 47% 29.83 0.0
03 10:55 SW 16 G 22 10.00 Overcast BKN065 OVC090 54.1 34 47% 29.83 0.0
03 10:35 SW 15 G 22 10.00 Overcast BKN065 OVC080 53.2 33.8 48% 29.84 0.0
03 10:15 SW 13 G 20 10.00 Overcast BKN065 OVC075 52.2 32.9 48% 29.84 0.0
03 09:55 W 14 G 22 10.00 Overcast BKN075 OVC090 50.9 32.5 50% 29.84 0.0
03 09:35 SW 14 G 18 10.00 Overcast OVC085 50.5 33.1 51% 29.84 0.0
03 09:15 SW 10 10.00 Overcast OVC085 48.9 32.9 54% 45 29.84 0.0
03 08:55 SW 12 G 16 10.00 Overcast OVC095 48.2 32.2 54% 44 29.84 0.0
Date Time (edt) Wind (mph) Vis. (mi.) Weather Sky Cond. Air Dwpt Max. Min. Relative Humidity Wind Chill (°F) Heat Index (°F) altimeter (in) sea level (mb) 1 hr 3 hr 6 hr
6 hour
Temperature (ºF) Pressure Precipitation (in)